createdAt,value
2023-04-01T00:02:00.385Z,5.92
2023-04-01T00:04:30.025Z,5.67
2023-04-01T00:06:59.635Z,6.45
2023-04-01T00:09:29.950Z,7.08
2023-04-01T00:11:59.872Z,5.92
2023-04-01T00:14:30.494Z,5.85
2023-04-01T00:17:00.357Z,5.90
2023-04-01T00:19:31.051Z,6.40
2023-04-01T00:22:01.833Z,7.30
2023-04-01T00:24:31.681Z,5.55
2023-04-01T00:27:01.621Z,5.72
2023-04-01T00:29:34.388Z,6.20
2023-04-01T00:32:04.188Z,5.70
2023-04-01T00:34:33.737Z,6.22
2023-04-01T00:37:03.212Z,5.60
2023-04-01T00:39:34.102Z,5.87
2023-04-01T00:42:04.707Z,6.42
2023-04-01T00:44:36.434Z,6.10
2023-04-01T00:47:06.332Z,5.58
2023-04-01T00:49:45.005Z,5.97
2023-04-01T00:52:17.643Z,5.92
2023-04-01T00:57:29.387Z,6.00
2023-04-01T01:00:01.690Z,6.12
2023-04-01T01:02:32.969Z,6.33
2023-04-01T01:05:03.474Z,6.05
2023-04-01T01:07:38.956Z,6.72
2023-04-01T01:10:14.390Z,6.67
2023-04-01T01:12:47.016Z,5.78
2023-04-01T01:15:28.416Z,6.00
2023-04-01T01:18:00.999Z,7.55
2023-04-01T01:20:36.402Z,5.67
2023-04-01T01:23:21.412Z,5.03
2023-04-01T01:26:02.910Z,5.22
2023-04-01T01:28:38.200Z,6.65
2023-04-01T01:31:33.590Z,5.58
2023-04-01T01:34:18.147Z,5.50
2023-04-01T01:36:51.052Z,5.85
2023-04-01T01:39:22.109Z,5.90
2023-04-01T01:41:52.090Z,6.58
2023-04-01T01:44:42.571Z,5.60
2023-04-01T01:47:13.613Z,6.00
2023-04-01T01:50:03.270Z,6.47
2023-04-01T01:52:32.900Z,6.37
2023-04-01T01:55:02.668Z,6.28
2023-04-01T01:57:39.863Z,6.47
2023-04-01T02:00:16.412Z,6.22
2023-04-01T02:02:48.826Z,6.10
2023-04-01T02:07:56.355Z,7.37
2023-04-01T02:10:28.526Z,7.00
2023-04-01T02:13:01.174Z,6.10
2023-04-01T02:15:34.219Z,6.00
2023-04-01T02:18:06.068Z,7.08
2023-04-01T02:20:39.698Z,6.28
2023-04-01T02:25:48.881Z,5.33
2023-04-01T02:30:52.598Z,5.28
2023-04-01T02:33:23.957Z,6.92
2023-04-01T02:35:53.481Z,6.83
2023-04-01T02:38:23.700Z,6.20
2023-04-01T02:40:56.468Z,6.60
2023-04-01T02:43:26.096Z,5.72
2023-04-01T02:45:55.800Z,6.58
2023-04-01T02:48:26.333Z,5.83
2023-04-01T02:50:56.824Z,6.92
2023-04-01T02:53:26.358Z,6.15
2023-04-01T02:55:57.265Z,5.20
2023-04-01T02:58:26.869Z,5.55
2023-04-01T03:00:56.814Z,6.28
2023-04-01T03:03:27.684Z,5.83
2023-04-01T03:05:59.466Z,6.28
2023-04-01T03:08:28.934Z,6.47
2023-04-01T03:11:00.210Z,6.28
2023-04-01T03:13:30.297Z,6.20
2023-04-01T03:15:59.944Z,6.45
2023-04-01T03:18:30.138Z,5.80
2023-04-01T03:20:59.815Z,5.85
2023-04-01T03:23:29.358Z,6.00
2023-04-01T03:25:58.849Z,7.08
2023-04-01T03:28:28.690Z,6.37
2023-04-01T03:30:58.920Z,6.28
2023-04-01T03:33:28.479Z,7.05
2023-04-01T03:35:59.460Z,5.95
2023-04-01T03:38:29.131Z,6.45
2023-04-01T03:40:58.626Z,6.00
2023-04-01T03:43:28.859Z,5.72
2023-04-01T03:45:59.081Z,6.15
2023-04-01T03:48:30.298Z,6.62
2023-04-01T03:51:00.548Z,5.47
2023-04-01T03:53:31.203Z,6.40
2023-04-01T03:56:02.691Z,5.30
2023-04-01T03:58:32.270Z,5.65
2023-04-01T04:01:03.897Z,6.40
2023-04-01T04:03:34.456Z,5.92
2023-04-01T04:06:04.836Z,6.67
2023-04-01T04:08:34.453Z,6.72
2023-04-01T04:11:03.933Z,6.28
2023-04-01T04:13:33.569Z,5.45
2023-04-01T04:16:05.870Z,6.83
2023-04-01T04:18:36.322Z,6.58
2023-04-01T04:21:06.863Z,5.58
2023-04-01T04:23:37.980Z,6.05
2023-04-01T04:26:10.652Z,6.83
2023-04-01T04:28:41.661Z,5.53
2023-04-01T04:31:11.339Z,5.58
2023-04-01T04:33:42.594Z,5.72
2023-04-01T04:36:12.262Z,6.22
2023-04-01T04:38:41.955Z,6.37
2023-04-01T04:41:14.193Z,5.78
2023-04-01T04:46:13.991Z,5.58
2023-04-01T04:48:45.676Z,5.92
2023-04-01T04:51:21.607Z,7.10
2023-04-01T04:53:52.991Z,6.75
2023-04-01T04:56:27.117Z,6.87
2023-04-01T04:59:02.028Z,5.55
2023-04-01T05:01:34.438Z,6.10
2023-04-01T05:04:03.957Z,5.00
2023-04-01T05:06:33.654Z,5.47
2023-04-01T05:09:03.976Z,5.08
2023-04-01T05:11:33.469Z,5.75
2023-04-01T05:14:03.127Z,6.20
2023-04-01T05:16:34.085Z,6.40
2023-04-01T05:19:03.639Z,5.77
2023-04-01T05:21:35.088Z,5.95
2023-04-01T05:24:04.779Z,6.67
2023-04-01T05:26:34.360Z,6.03
2023-04-01T05:29:05.504Z,6.55
2023-04-01T05:31:35.763Z,6.40
2023-04-01T05:34:07.169Z,6.30
2023-04-01T05:36:36.725Z,5.60
2023-04-01T05:39:06.546Z,5.85
2023-04-01T05:41:41.301Z,5.87
2023-04-01T05:44:14.260Z,5.53
2023-04-01T05:46:45.535Z,6.42
2023-04-01T05:49:20.374Z,5.50
2023-04-01T05:51:50.626Z,5.53
2023-04-01T05:54:22.242Z,5.87
2023-04-01T05:56:52.991Z,5.17
2023-04-01T05:59:23.113Z,5.95
2023-04-01T06:01:53.338Z,5.30
2023-04-01T06:04:23.469Z,6.53
2023-04-01T06:06:53.475Z,6.08
2023-04-01T06:09:28.664Z,5.85
2023-04-01T06:12:17.329Z,6.15
2023-04-01T06:15:10.913Z,5.90
2023-04-01T06:18:02.110Z,6.73
2023-04-01T06:20:43.575Z,7.37
2023-04-01T06:23:29.171Z,6.12
2023-04-01T06:26:02.182Z,7.55
2023-04-01T06:29:03.143Z,7.03
2023-04-01T06:31:58.815Z,6.33
2023-04-01T06:34:34.436Z,6.80
2023-04-01T06:37:29.789Z,5.90
2023-04-01T06:40:27.174Z,5.12
2023-04-01T06:43:09.346Z,6.70
2023-04-01T06:46:04.479Z,5.65
2023-04-01T06:48:59.466Z,6.60
2023-04-01T06:51:58.569Z,6.03
2023-04-01T06:54:47.781Z,5.78
2023-04-01T06:57:38.301Z,5.80
2023-04-01T07:00:16.882Z,5.78
2023-04-01T07:02:59.793Z,4.78
2023-04-01T07:08:04.721Z,5.58
2023-04-01T07:10:43.981Z,5.75
2023-04-01T07:13:43.173Z,5.05
2023-04-01T07:16:34.793Z,5.50
2023-04-01T07:19:33.761Z,5.60
2023-04-01T07:22:34.078Z,5.20
2023-04-01T07:25:17.571Z,5.17
2023-04-01T07:27:49.325Z,6.12
2023-04-01T07:30:21.576Z,5.92
2023-04-01T07:32:56.822Z,4.70
2023-04-01T07:35:32.951Z,4.60
2023-04-01T07:38:12.089Z,6.77
2023-04-01T07:40:56.711Z,6.47
2023-04-01T07:43:46.075Z,5.35
2023-04-01T07:46:32.751Z,4.92
2023-04-01T07:49:17.930Z,5.85
2023-04-01T07:51:54.490Z,4.72
2023-04-01T07:54:53.334Z,5.72
2023-04-01T07:58:01.103Z,6.87
2023-04-01T08:00:34.615Z,5.75
2023-04-01T08:03:28.470Z,6.10
2023-04-01T08:06:04.842Z,5.58
2023-04-01T08:08:38.353Z,6.20
2023-04-01T08:11:31.978Z,5.50
2023-04-01T08:17:09.292Z,5.54
2023-04-01T08:19:47.200Z,5.87
2023-04-01T08:22:20.510Z,5.45
2023-04-01T08:24:52.974Z,6.63
2023-04-01T08:27:42.771Z,5.17
2023-04-01T08:30:24.475Z,5.60
2023-04-01T08:32:59.867Z,5.50
2023-04-01T08:35:34.986Z,4.93
2023-04-01T08:38:35.539Z,5.20
2023-04-01T08:41:23.731Z,5.62
2023-04-01T08:44:23.412Z,5.20
2023-04-01T08:46:57.395Z,4.35
2023-04-01T08:50:05.430Z,4.83
2023-04-01T08:53:01.136Z,4.33
2023-04-01T08:55:39.326Z,4.62
2023-04-01T08:58:28.804Z,3.62
2023-04-01T09:01:14.810Z,3.60
2023-04-01T09:04:05.855Z,4.87
2023-04-01T09:06:41.756Z,3.17
2023-04-01T09:09:36.852Z,4.08
2023-04-01T09:12:36.721Z,3.92
2023-04-01T09:15:18.920Z,4.00
2023-04-01T09:18:03.229Z,3.20
2023-04-01T09:20:51.512Z,3.17
2023-04-01T09:23:42.235Z,2.52
2023-04-01T09:26:34.198Z,2.10
2023-04-01T09:29:22.809Z,2.70
2023-04-01T09:32:16.600Z,2.55
2023-04-01T09:35:19.300Z,2.12
2023-04-01T09:38:04.371Z,2.17
2023-04-01T09:40:53.985Z,2.25
2023-04-01T09:43:37.483Z,2.70
2023-04-01T09:46:40.932Z,2.50
2023-04-01T09:49:46.492Z,3.55
2023-04-01T09:52:31.702Z,3.17
2023-04-01T09:55:07.494Z,2.50
2023-04-01T09:57:54.403Z,3.02
2023-04-01T10:01:04.128Z,2.72
2023-04-01T10:03:55.756Z,2.25
2023-04-01T10:06:45.273Z,2.45
2023-04-01T10:09:44.922Z,2.52
2023-04-01T10:12:23.484Z,2.30
2023-04-01T10:15:11.421Z,3.08
2023-04-01T10:17:47.221Z,3.42
2023-04-01T10:20:42.786Z,3.33
2023-04-01T10:23:35.954Z,3.25
2023-04-01T10:26:18.762Z,2.52
2023-04-01T10:28:58.428Z,2.70
2023-04-01T10:32:04.599Z,2.50
2023-04-01T10:34:53.646Z,2.67
2023-04-01T10:37:44.242Z,2.83
2023-04-01T10:40:33.615Z,5.80
2023-04-01T10:43:19.567Z,3.02
2023-04-01T10:46:08.254Z,3.30
2023-04-01T10:48:47.165Z,4.08
2023-04-01T10:51:22.411Z,2.60
2023-04-01T10:54:19.115Z,2.30
2023-04-01T10:57:15.117Z,3.72
2023-04-01T11:00:07.138Z,3.90
2023-04-01T11:03:09.636Z,3.25
2023-04-01T11:06:12.451Z,3.58
2023-04-01T11:08:54.040Z,2.45
2023-04-01T11:11:27.522Z,2.70
2023-04-01T11:16:56.022Z,2.85
2023-04-01T11:19:40.823Z,2.75
2023-04-01T11:22:20.031Z,2.25
2023-04-01T11:25:11.569Z,2.95
2023-04-01T11:28:05.208Z,2.65
2023-04-01T11:30:49.551Z,2.30
2023-04-01T11:33:40.398Z,2.87
2023-04-01T11:36:25.240Z,2.33
2023-04-01T11:39:17.595Z,1.70
2023-04-01T11:42:19.081Z,1.85
2023-04-01T11:45:09.972Z,1.70
2023-04-01T11:47:58.123Z,1.80
2023-04-01T11:50:54.778Z,1.47
2023-04-01T11:53:33.111Z,1.37
2023-04-01T11:56:11.354Z,1.40
2023-04-01T11:59:10.736Z,1.37
2023-04-01T12:02:03.868Z,1.77
2023-04-01T12:04:45.245Z,1.12
2023-04-01T12:07:34.228Z,2.52
2023-04-01T12:10:22.992Z,1.55
2023-04-01T12:13:01.580Z,1.65
2023-04-01T12:15:45.016Z,2.05
2023-04-01T12:18:29.329Z,1.60
2023-04-01T12:21:08.147Z,1.90
2023-04-01T12:23:55.411Z,1.30
2023-04-01T12:26:50.533Z,1.87
2023-04-01T12:29:31.818Z,1.73
2023-04-01T12:32:16.573Z,1.90
2023-04-01T12:34:59.659Z,1.82
2023-04-01T12:37:35.079Z,1.52
2023-04-01T12:40:10.431Z,2.02
2023-04-01T12:42:51.935Z,1.95
2023-04-01T12:45:31.787Z,1.80
2023-04-01T12:48:17.483Z,1.70
2023-04-01T12:51:01.272Z,1.75
2023-04-01T12:53:48.954Z,1.82
2023-04-01T12:56:42.270Z,2.10
2023-04-01T12:59:52.761Z,1.72
2023-04-01T13:02:54.175Z,1.70
2023-04-01T13:05:36.338Z,1.70
2023-04-01T13:08:23.854Z,1.82
2023-04-01T13:11:20.296Z,1.82
2023-04-01T13:14:09.314Z,1.87
2023-04-01T13:16:58.592Z,1.72
2023-04-01T13:19:31.119Z,1.45
2023-04-01T13:22:22.087Z,1.37
2023-04-01T13:25:09.639Z,2.52
2023-04-01T13:27:42.277Z,1.60
2023-04-01T13:33:05.868Z,1.90
2023-04-01T13:36:02.257Z,1.80
2023-04-01T13:38:51.269Z,1.55
2023-04-01T13:41:26.586Z,1.80
2023-04-01T13:44:11.353Z,1.40
2023-04-01T13:47:03.215Z,1.50
2023-04-01T13:49:40.264Z,1.62
2023-04-01T13:52:23.028Z,2.80
2023-04-01T13:55:15.580Z,2.25
2023-04-01T13:58:03.107Z,2.20
2023-04-01T14:00:55.116Z,1.82
2023-04-01T14:03:30.735Z,1.55
2023-04-01T14:06:13.016Z,2.35
2023-04-01T14:09:04.649Z,1.70
2023-04-01T14:11:43.244Z,1.82
2023-04-01T14:14:18.874Z,2.00
2023-04-01T14:17:21.691Z,2.45
2023-04-01T14:19:56.098Z,2.72
2023-04-01T14:22:31.626Z,2.77
2023-04-01T14:25:16.254Z,2.70
2023-04-01T14:28:03.946Z,2.10
2023-04-01T14:30:56.539Z,1.90
2023-04-01T14:33:48.094Z,2.07
2023-04-01T14:36:32.648Z,2.08
2023-04-01T14:39:20.048Z,1.57
2023-04-01T14:42:18.929Z,1.83
2023-04-01T14:44:47.734Z,2.08
2023-04-01T14:47:22.973Z,2.85
2023-04-01T14:50:08.445Z,2.05
2023-04-01T14:52:43.643Z,2.62
2023-04-01T14:55:31.803Z,1.85
2023-04-01T14:58:17.024Z,3.50
2023-04-01T15:00:52.024Z,2.80
2023-04-01T15:03:36.674Z,1.85
2023-04-01T15:06:35.133Z,1.57
2023-04-01T15:09:33.191Z,2.02
2023-04-01T15:12:25.173Z,1.82
2023-04-01T15:15:26.353Z,2.17
2023-04-01T15:18:13.542Z,3.25
2023-04-01T15:21:09.008Z,2.40
2023-04-01T15:23:53.344Z,2.10
2023-04-01T15:26:48.328Z,2.53
2023-04-01T15:29:51.129Z,1.90
2023-04-01T15:32:41.231Z,2.27
2023-04-01T15:35:38.236Z,1.65
2023-04-01T15:38:30.177Z,1.65
2023-04-01T15:41:11.449Z,1.55
2023-04-01T15:43:53.397Z,1.60
2023-04-01T15:46:33.655Z,2.20
2023-04-01T15:49:21.367Z,1.92
2023-04-01T15:52:14.016Z,1.60
2023-04-01T15:54:49.242Z,2.00
2023-04-01T15:57:42.120Z,1.60
2023-04-01T16:00:29.813Z,2.02
2023-04-01T16:03:06.919Z,1.67
2023-04-01T16:06:14.077Z,1.47
2023-04-01T16:08:59.379Z,1.55
2023-04-01T16:11:43.886Z,1.95
2023-04-01T16:14:21.916Z,2.10
2023-04-01T16:16:57.202Z,1.72
2023-04-01T16:19:52.287Z,1.95
2023-04-01T16:22:30.739Z,2.22
2023-04-01T16:25:23.037Z,2.00
2023-04-01T16:28:21.008Z,1.77
2023-04-01T16:30:53.616Z,1.90
2023-04-01T16:36:10.168Z,6.28
2023-04-01T16:38:52.274Z,3.47
2023-04-01T16:41:24.852Z,3.67
2023-04-01T16:44:16.975Z,10.75
2023-04-01T16:46:55.255Z,10.00
2023-04-01T16:49:36.555Z,6.50
2023-04-01T16:52:12.113Z,9.33
2023-04-01T16:54:57.933Z,6.47
2023-04-01T16:57:48.909Z,8.35
2023-04-01T17:00:30.599Z,3.90
2023-04-01T17:03:17.075Z,7.62
2023-04-01T17:06:04.480Z,3.12
2023-04-01T17:08:52.373Z,2.92
2023-04-01T17:11:33.496Z,6.77
2023-04-01T17:14:31.316Z,19.05
2023-04-01T17:17:06.662Z,9.63
2023-04-01T17:20:05.402Z,6.00
2023-04-01T17:22:37.950Z,13.25
2023-04-01T17:25:31.845Z,8.33
2023-04-01T17:28:07.218Z,5.65
2023-04-01T17:31:02.356Z,5.15
2023-04-01T17:33:41.082Z,5.95
2023-04-01T17:36:43.807Z,6.10
2023-04-01T17:39:21.881Z,9.00
2023-04-01T17:41:57.427Z,8.15
2023-04-01T17:44:32.876Z,3.73
2023-04-01T17:47:27.944Z,5.20
2023-04-01T17:50:21.674Z,4.35
2023-04-01T17:53:02.609Z,7.40
2023-04-01T17:55:54.783Z,3.72
2023-04-01T17:58:33.195Z,3.00
2023-04-01T18:01:08.614Z,5.10
2023-04-01T18:03:58.149Z,6.87
2023-04-01T18:06:40.164Z,3.27
2023-04-01T18:09:12.739Z,2.52
2023-04-01T18:11:48.065Z,4.12
2023-04-01T18:14:38.315Z,7.03
2023-04-01T18:17:23.210Z,2.85
2023-04-01T18:20:05.007Z,2.27
2023-04-01T18:22:46.901Z,2.58
2023-04-01T18:25:25.920Z,2.40
2023-04-01T18:27:58.457Z,2.58
2023-04-01T18:30:34.117Z,2.85
2023-04-01T18:33:37.007Z,2.92
2023-04-01T18:36:15.950Z,2.77
2023-04-01T18:39:00.447Z,2.80
2023-04-01T18:41:58.466Z,2.58
2023-04-01T18:44:33.722Z,1.90
2023-04-01T18:47:27.682Z,3.15
2023-04-01T18:50:15.083Z,6.60
2023-04-01T18:52:46.923Z,5.33
2023-04-01T18:55:36.320Z,3.93
2023-04-01T18:58:17.573Z,3.05
2023-04-01T19:01:05.418Z,2.00
2023-04-01T19:03:38.180Z,2.83
2023-04-01T19:08:54.908Z,3.60
2023-04-01T19:11:47.319Z,4.57
2023-04-01T19:14:45.678Z,3.08
2023-04-01T19:17:34.672Z,3.10
2023-04-01T19:20:16.848Z,2.45
2023-04-01T19:22:58.249Z,2.40
2023-04-01T19:25:46.990Z,2.75
2023-04-01T19:28:19.529Z,2.33
2023-04-01T19:30:55.033Z,2.45
2023-04-01T19:33:39.475Z,2.40
2023-04-01T19:36:27.802Z,2.42
2023-04-01T19:39:27.486Z,2.92
2023-04-01T19:42:19.396Z,2.60
2023-04-01T19:45:03.884Z,2.90
2023-04-01T19:47:48.422Z,3.90
2023-04-01T19:50:34.573Z,2.70
2023-04-01T19:53:16.479Z,3.20
2023-04-01T19:55:51.548Z,3.02
2023-04-01T19:58:24.483Z,4.75
2023-04-01T20:03:33.635Z,3.17
2023-04-01T20:06:08.908Z,2.62
2023-04-01T20:08:41.531Z,3.10
2023-04-01T20:11:26.283Z,2.62
2023-04-01T20:14:07.598Z,3.60
2023-04-01T20:16:52.360Z,3.22
2023-04-01T20:19:27.913Z,29.15
2023-04-01T20:22:01.353Z,72.22
2023-04-01T20:24:46.093Z,44.55
2023-04-01T20:27:22.140Z,14.68
2023-04-01T20:30:19.053Z,17.48
2023-04-01T20:33:09.681Z,10.18
2023-04-01T20:36:08.699Z,5.08
2023-04-01T20:38:56.555Z,3.37
2023-04-01T20:41:29.132Z,2.75
2023-04-01T20:44:17.342Z,2.20
2023-04-01T20:46:50.487Z,19.27
2023-04-01T20:49:37.528Z,25.45
2023-04-01T20:52:19.280Z,19.85
2023-04-01T20:55:01.017Z,2.77
2023-04-01T20:57:36.591Z,4.13
2023-04-01T21:00:15.546Z,3.67
2023-04-01T21:03:00.030Z,4.80
2023-04-01T21:05:49.001Z,5.00
2023-04-01T21:08:22.095Z,3.80
2023-04-01T21:11:10.160Z,3.58
2023-04-01T21:13:58.172Z,3.37
2023-04-01T21:16:39.437Z,3.98
2023-04-01T21:19:31.982Z,3.40
2023-04-01T21:22:17.626Z,3.73
2023-04-01T21:24:59.330Z,4.30
2023-04-01T21:27:46.193Z,3.75
2023-04-01T21:30:45.857Z,4.08
2023-04-01T21:33:27.138Z,3.60
